createdAt,value
2019-05-05T00:02:34.283Z,97766.32
2019-05-05T00:05:14.968Z,97776.41
2019-05-05T00:07:46.554Z,97782.27
2019-05-05T00:10:25.786Z,97781.16
2019-05-05T00:13:11.464Z,97783.27
2019-05-05T00:16:10.721Z,97792.45
2019-05-05T00:18:44.798Z,97794.17
2019-05-05T00:21:16.168Z,97790.94
2019-05-05T00:23:47.509Z,97796.17
2019-05-05T00:26:18.942Z,97788.97
2019-05-05T00:28:50.723Z,97795.48
2019-05-05T00:31:24.205Z,97796.20
2019-05-05T00:33:55.566Z,97801.91
2019-05-05T00:36:27.159Z,97804.45
2019-05-05T00:38:59.376Z,97801.76
2019-05-05T00:41:34.514Z,97812.10
2019-05-05T00:44:05.541Z,97817.84
2019-05-05T00:47:00.024Z,97819.95
2019-05-05T00:49:45.588Z,97828.11
2019-05-05T00:52:05.381Z,97828.81
2019-05-05T00:54:36.677Z,97829.20
2019-05-05T00:57:08.146Z,97837.07
2019-05-05T00:59:41.186Z,97841.55
2019-05-05T01:02:27.562Z,97843.73
2019-05-05T01:05:06.268Z,97848.39
2019-05-05T01:07:37.821Z,97856.33
2019-05-05T01:10:09.265Z,97853.47
2019-05-05T01:12:40.512Z,97862.58
2019-05-05T01:15:11.964Z,97857.19
2019-05-05T01:17:45.123Z,97872.70
2019-05-05T01:20:16.588Z,97872.02
2019-05-05T01:22:48.095Z,97882.81
2019-05-05T01:25:19.375Z,97884.09
2019-05-05T01:27:50.624Z,97894.03
2019-05-05T01:30:29.332Z,97893.47
2019-05-05T01:33:07.294Z,97900.05
2019-05-05T01:35:38.688Z,97907.29
2019-05-05T01:38:16.170Z,97906.16
2019-05-05T01:40:58.733Z,97917.78
2019-05-05T01:43:30.029Z,97911.41
2019-05-05T01:46:01.455Z,97913.00
2019-05-05T01:48:32.701Z,97922.95
2019-05-05T01:51:05.042Z,97918.02
2019-05-05T01:53:36.530Z,97919.61
2019-05-05T01:56:08.439Z,97920.08
2019-05-05T01:58:39.834Z,97922.45
2019-05-05T02:01:11.590Z,97929.02
2019-05-05T02:03:44.281Z,97934.27
2019-05-05T02:06:15.827Z,97937.47
2019-05-05T02:08:47.167Z,97932.53
2019-05-05T02:11:18.468Z,97936.72
2019-05-05T02:13:49.828Z,97939.66
2019-05-05T02:16:21.219Z,97940.07
2019-05-05T02:18:54.420Z,97940.53
2019-05-05T02:21:25.894Z,97940.23
2019-05-05T02:23:57.183Z,97939.20
2019-05-05T02:26:28.517Z,97943.53
2019-05-05T02:29:14.124Z,97947.65
2019-05-05T02:32:05.948Z,97953.13
2019-05-05T02:34:39.141Z,97954.80
2019-05-05T02:37:10.708Z,97962.50
2019-05-05T02:39:50.476Z,97966.66
2019-05-05T02:42:17.090Z,97968.70
2019-05-05T02:44:48.943Z,97967.31
2019-05-05T02:47:50.001Z,97978.14
2019-05-05T02:50:25.114Z,97977.84
2019-05-05T02:52:59.800Z,97981.23
2019-05-05T02:55:34.825Z,97989.92
2019-05-05T02:58:06.211Z,98002.84
2019-05-05T03:00:54.891Z,98002.27
2019-05-05T03:03:26.647Z,97996.69
2019-05-05T03:05:58.764Z,98009.91
2019-05-05T03:08:30.925Z,98016.22
2019-05-05T03:11:03.911Z,98014.02
2019-05-05T03:13:36.815Z,98016.61
2019-05-05T03:16:15.835Z,98016.84
2019-05-05T03:18:48.898Z,98015.97
2019-05-05T03:21:21.446Z,98026.94
2019-05-05T03:23:54.732Z,98029.72
2019-05-05T03:26:26.434Z,98029.22
2019-05-05T03:28:59.419Z,98038.47
2019-05-05T03:31:30.991Z,98035.63
2019-05-05T03:34:05.560Z,98044.59
2019-05-05T03:36:35.673Z,98049.30
2019-05-05T03:39:09.822Z,98057.29
2019-05-05T03:42:09.452Z,98054.64
2019-05-05T03:44:47.443Z,98059.36
2019-05-05T03:47:18.822Z,98062.95
2019-05-05T03:49:53.565Z,98060.55
2019-05-05T03:52:25.376Z,98061.20
2019-05-05T03:54:57.055Z,98067.47
2019-05-05T03:57:28.477Z,98072.59
2019-05-05T03:59:59.827Z,98074.59
2019-05-05T04:02:55.953Z,98077.03
2019-05-05T04:05:44.503Z,98081.43
2019-05-05T04:08:17.929Z,98083.02
2019-05-05T04:10:51.038Z,98089.19
2019-05-05T04:13:24.893Z,98094.41
2019-05-05T04:16:20.716Z,98094.20
2019-05-05T04:18:58.891Z,98101.66
2019-05-05T04:21:33.906Z,98098.44
2019-05-05T04:24:04.057Z,98104.83
2019-05-05T04:26:35.684Z,98116.11
2019-05-05T04:29:07.107Z,98111.88
2019-05-05T04:31:38.443Z,98114.14
2019-05-05T04:34:09.918Z,98126.68
2019-05-05T04:36:41.320Z,98120.82
2019-05-05T04:39:14.378Z,98128.16
2019-05-05T04:41:45.791Z,98127.94
2019-05-05T04:44:18.044Z,98137.05
2019-05-05T04:46:52.222Z,98140.84
2019-05-05T04:49:39.892Z,98147.75
2019-05-05T04:52:14.284Z,98152.29
2019-05-05T04:54:48.436Z,98159.88
2019-05-05T04:57:19.786Z,98162.27
2019-05-05T04:59:53.993Z,98174.16
2019-05-05T05:03:04.456Z,98164.71
2019-05-05T05:06:09.679Z,98181.95
2019-05-05T05:08:41.361Z,98186.56
2019-05-05T05:11:14.202Z,98187.69
2019-05-05T05:13:45.513Z,98197.44
2019-05-05T05:16:16.902Z,98198.18
2019-05-05T05:18:48.194Z,98202.66
2019-05-05T05:21:19.507Z,98204.42
2019-05-05T05:23:50.910Z,98205.75
2019-05-05T05:26:24.191Z,98201.61
2019-05-05T05:28:55.357Z,98203.37
2019-05-05T05:31:26.626Z,98211.30
2019-05-05T05:33:57.962Z,98211.83
2019-05-05T05:36:29.279Z,98213.22
2019-05-05T05:39:05.746Z,98221.08
2019-05-05T05:41:44.144Z,98224.16
2019-05-05T05:44:28.090Z,98224.38
2019-05-05T05:47:29.323Z,98224.95
2019-05-05T05:50:17.430Z,98224.80
2019-05-05T05:52:49.056Z,98235.95
2019-05-05T05:55:20.465Z,98230.23
2019-05-05T05:57:54.013Z,98225.69
2019-05-05T06:00:24.893Z,98231.86
2019-05-05T06:02:56.248Z,98232.82
2019-05-05T06:05:27.500Z,98237.00
2019-05-05T06:07:58.775Z,98234.06
2019-05-05T06:10:30.167Z,98238.91
2019-05-05T06:13:03.894Z,98245.16
2019-05-05T06:15:35.097Z,98242.72
2019-05-05T06:18:06.479Z,98244.66
2019-05-05T06:20:37.731Z,98241.13
2019-05-05T06:23:09.228Z,98246.11
2019-05-05T06:25:40.499Z,98239.80
2019-05-05T06:28:11.871Z,98248.69
2019-05-05T06:30:44.288Z,98246.02
2019-05-05T06:33:16.013Z,98245.66
2019-05-05T06:35:47.262Z,98251.96
2019-05-05T06:38:18.521Z,98258.50
2019-05-05T06:41:08.758Z,98255.48
2019-05-05T06:44:37.881Z,98257.77
2019-05-05T06:47:15.323Z,98265.19
2019-05-05T06:49:46.717Z,98267.59
2019-05-05T06:52:18.130Z,98261.48
2019-05-05T06:54:49.383Z,98277.53
2019-05-05T06:57:20.728Z,98270.92
2019-05-05T06:59:54.247Z,98272.10
2019-05-05T07:02:25.121Z,98275.09
2019-05-05T07:04:56.416Z,98280.31
2019-05-05T07:07:27.806Z,98281.47
2019-05-05T07:09:59.134Z,98279.11
2019-05-05T07:12:30.387Z,98279.25
2019-05-05T07:15:04.047Z,98278.16
2019-05-05T07:17:34.798Z,98275.52
2019-05-05T07:20:06.543Z,98277.63
2019-05-05T07:22:37.815Z,98274.09
2019-05-05T07:25:09.448Z,98277.11
2019-05-05T07:27:40.723Z,98283.59
2019-05-05T07:30:13.921Z,98285.11
2019-05-05T07:32:45.181Z,98284.67
2019-05-05T07:35:35.410Z,98283.48
2019-05-05T07:38:06.757Z,98284.72
2019-05-05T07:40:38.091Z,98274.50
2019-05-05T07:43:09.527Z,98278.06
2019-05-05T07:45:40.829Z,98280.96
2019-05-05T07:48:13.838Z,98277.47
2019-05-05T07:50:58.166Z,98281.41
2019-05-05T07:53:18.222Z,98290.02
2019-05-05T07:55:49.501Z,98287.09
2019-05-05T07:58:20.856Z,98293.65
2019-05-05T08:00:54.100Z,98294.27
2019-05-05T08:03:25.354Z,98288.88
2019-05-05T08:05:56.716Z,98291.17
2019-05-05T08:08:28.003Z,98299.05
2019-05-05T08:10:59.322Z,98292.55
2019-05-05T08:13:30.802Z,98291.04
2019-05-05T08:16:04.161Z,98291.39
2019-05-05T08:18:54.494Z,98294.95
2019-05-05T08:21:25.969Z,98289.55
2019-05-05T08:24:07.677Z,98297.14
2019-05-05T08:27:06.831Z,98294.89
2019-05-05T08:30:24.463Z,98298.30
2019-05-05T08:32:56.461Z,98297.53
2019-05-05T08:35:27.933Z,98295.73
2019-05-05T08:37:59.555Z,98304.00
2019-05-05T08:40:31.039Z,98302.11
2019-05-05T08:43:04.522Z,98308.13
2019-05-05T08:45:35.550Z,98296.44
2019-05-05T08:48:06.858Z,98301.55
2019-05-05T08:50:38.180Z,98299.63
2019-05-05T08:53:09.875Z,98294.58
2019-05-05T08:55:41.194Z,98291.84
2019-05-05T08:58:14.619Z,98286.36
2019-05-05T09:00:45.618Z,98290.44
2019-05-05T09:03:17.044Z,98300.38
2019-05-05T09:05:48.359Z,98289.75
2019-05-05T09:08:25.531Z,98304.23
2019-05-05T09:10:56.812Z,98289.88
2019-05-05T09:13:27.415Z,98290.30
2019-05-05T09:15:58.984Z,98290.52
2019-05-05T09:18:30.467Z,98288.38
2019-05-05T09:21:01.834Z,98290.43
2019-05-05T09:23:34.899Z,98291.75
2019-05-05T09:26:14.511Z,98291.75
2019-05-05T09:29:13.904Z,98291.95
2019-05-05T09:31:45.290Z,98285.47
2019-05-05T09:34:16.669Z,98282.19
2019-05-05T09:36:59.743Z,98282.92
2019-05-05T09:39:31.449Z,98276.55
2019-05-05T09:42:09.999Z,98284.80
2019-05-05T09:44:43.641Z,98284.77
2019-05-05T09:47:14.392Z,98282.98
2019-05-05T09:49:46.141Z,98287.49
2019-05-05T09:52:18.387Z,98283.03
2019-05-05T09:54:49.673Z,98287.35
2019-05-05T09:57:20.954Z,98277.59
2019-05-05T09:59:56.518Z,98280.58
2019-05-05T10:02:27.775Z,98277.53
2019-05-05T10:04:59.123Z,98287.95
2019-05-05T10:07:30.384Z,98284.22
2019-05-05T10:10:01.711Z,98291.80
2019-05-05T10:12:33.805Z,98296.30
2019-05-05T10:15:07.400Z,98292.57
2019-05-05T10:17:38.641Z,98289.66
2019-05-05T10:20:10.367Z,98290.99
2019-05-05T10:22:43.790Z,98282.36
2019-05-05T10:25:34.508Z,98289.13
2019-05-05T10:28:05.774Z,98292.94
2019-05-05T10:30:37.112Z,98289.52
2019-05-05T10:33:10.522Z,98289.32
2019-05-05T10:35:43.726Z,98282.58
2019-05-05T10:38:14.995Z,98286.47
2019-05-05T10:40:48.322Z,98290.26
2019-05-05T10:43:19.247Z,98286.01
2019-05-05T10:45:50.631Z,98290.13
2019-05-05T10:48:23.566Z,98290.30
2019-05-05T10:50:54.903Z,98291.00
2019-05-05T10:53:26.356Z,98299.27
2019-05-05T10:55:57.799Z,98292.05
2019-05-05T10:58:29.129Z,98286.50
2019-05-05T11:01:03.945Z,98291.71
2019-05-05T11:03:34.948Z,98290.16
2019-05-05T11:06:06.270Z,98294.89
2019-05-05T11:08:37.637Z,98291.09
2019-05-05T11:11:09.184Z,98293.96
2019-05-05T11:13:42.901Z,98291.94
2019-05-05T11:16:14.495Z,98290.12
2019-05-05T11:18:46.144Z,98286.95
2019-05-05T11:21:17.495Z,98287.02
2019-05-05T11:23:48.858Z,98289.94
2019-05-05T11:26:20.151Z,98290.27
2019-05-05T11:28:53.716Z,98294.03
2019-05-05T11:31:24.552Z,98299.84
2019-05-05T11:34:10.840Z,98296.33
2019-05-05T11:37:07.168Z,98301.46
2019-05-05T11:39:40.087Z,98306.66
2019-05-05T11:42:11.571Z,98304.70
2019-05-05T11:44:42.891Z,98306.98
2019-05-05T11:47:14.289Z,98309.09
2019-05-05T11:49:45.648Z,98311.97
2019-05-05T11:52:17.018Z,98304.81
2019-05-05T11:54:48.437Z,98305.53
2019-05-05T11:57:19.952Z,98300.92
2019-05-05T11:59:51.310Z,98303.79
2019-05-05T12:02:24.627Z,98304.31
2019-05-05T12:04:55.920Z,98307.30
2019-05-05T12:07:27.277Z,98314.32
2019-05-05T12:09:58.757Z,98311.27
2019-05-05T12:12:30.194Z,98315.85
2019-05-05T12:15:04.215Z,98317.44
2019-05-05T12:17:35.523Z,98313.53
2019-05-05T12:20:09.708Z,98309.02
2019-05-05T12:22:41.044Z,98313.53
2019-05-05T12:25:30.320Z,98314.34
2019-05-05T12:28:06.048Z,98320.31
2019-05-05T12:30:37.514Z,98329.28
2019-05-05T12:33:09.004Z,98330.15
2019-05-05T12:35:40.347Z,98330.44
2019-05-05T12:38:13.170Z,98333.28
2019-05-05T12:40:44.594Z,98326.54
2019-05-05T12:43:16.071Z,98331.94
2019-05-05T12:45:50.399Z,98335.46
2019-05-05T12:48:27.508Z,98332.50
2019-05-05T12:50:58.943Z,98333.88
2019-05-05T12:53:31.944Z,98333.02
2019-05-05T12:56:04.083Z,98342.11
2019-05-05T12:58:35.830Z,98330.74
2019-05-05T13:01:14.892Z,98332.33
2019-05-05T13:03:46.414Z,98331.69
2019-05-05T13:06:18.009Z,98319.34
2019-05-05T13:08:49.408Z,98322.65
2019-05-05T13:11:20.695Z,98335.07
2019-05-05T13:13:51.987Z,98327.78
2019-05-05T13:16:25.111Z,98332.72
2019-05-05T13:18:56.581Z,98330.70
2019-05-05T13:21:58.674Z,98337.86
2019-05-05T13:24:54.921Z,98337.61
2019-05-05T13:27:29.310Z,98340.22
2019-05-05T13:30:01.033Z,98328.35
2019-05-05T13:32:34.148Z,98331.27
2019-05-05T13:35:06.756Z,98329.64
2019-05-05T13:37:38.061Z,98328.27
2019-05-05T13:40:09.676Z,98323.20
2019-05-05T13:42:41.049Z,98335.58
2019-05-05T13:45:28.335Z,98334.99
2019-05-05T13:47:59.698Z,98336.40
2019-05-05T13:50:40.125Z,98333.78
2019-05-05T13:53:11.479Z,98331.82
2019-05-05T13:55:45.981Z,98330.58
2019-05-05T13:58:17.605Z,98332.54
2019-05-05T14:00:48.854Z,98329.20
2019-05-05T14:03:20.317Z,98332.83
2019-05-05T14:05:51.681Z,98331.92
2019-05-05T14:08:23.744Z,98327.67
2019-05-05T14:10:55.277Z,98334.79
2019-05-05T14:13:26.682Z,98331.36
2019-05-05T14:15:58.086Z,98333.55
2019-05-05T14:18:29.341Z,98329.67
2019-05-05T14:21:00.742Z,98322.63
2019-05-05T14:23:34.530Z,98322.55
2019-05-05T14:26:06.013Z,98317.56
2019-05-05T14:28:37.282Z,98319.08
2019-05-05T14:31:25.762Z,98325.31
2019-05-05T14:33:59.437Z,98327.99
2019-05-05T14:36:45.962Z,98330.73
2019-05-05T14:39:17.771Z,98343.12
2019-05-05T14:41:49.225Z,98341.84
2019-05-05T14:44:20.524Z,98345.14
2019-05-05T14:47:05.090Z,98343.25
2019-05-05T14:49:47.203Z,98346.34
2019-05-05T14:52:32.468Z,98348.95
2019-05-05T14:55:08.761Z,98347.06
2019-05-05T14:57:41.667Z,98347.33
2019-05-05T15:00:16.455Z,98346.43
2019-05-05T15:02:58.014Z,98341.63
2019-05-05T15:05:55.292Z,98342.40
2019-05-05T15:08:38.614Z,98348.91
2019-05-05T15:11:40.156Z,98355.64
2019-05-05T15:14:13.678Z,98354.92
2019-05-05T15:17:20.324Z,98359.67
2019-05-05T15:20:16.752Z,98359.97
2019-05-05T15:22:48.240Z,98362.33
2019-05-05T15:25:19.537Z,98366.13
2019-05-05T15:27:51.046Z,98366.92
2019-05-05T15:30:27.116Z,98377.23
2019-05-05T15:32:59.196Z,98377.23
2019-05-05T15:35:30.516Z,98383.48
2019-05-05T15:38:04.501Z,98389.73
2019-05-05T15:40:35.824Z,98394.16
2019-05-05T15:43:07.369Z,98397.02
2019-05-05T15:45:38.652Z,98402.06
2019-05-05T15:48:13.859Z,98404.22
2019-05-05T15:51:04.033Z,98404.02
2019-05-05T15:53:35.147Z,98398.88
2019-05-05T15:56:06.483Z,98400.40
2019-05-05T15:58:37.881Z,98402.00
2019-05-05T16:01:09.257Z,98405.22
2019-05-05T16:03:40.628Z,98406.84
2019-05-05T16:06:14.132Z,98401.06
2019-05-05T16:08:45.380Z,98398.41
2019-05-05T16:11:23.369Z,98403.55
2019-05-05T16:14:06.563Z,98400.48
2019-05-05T16:16:45.232Z,98411.67
2019-05-05T16:19:38.646Z,98412.95
2019-05-05T16:22:14.556Z,98414.28
2019-05-05T16:25:07.019Z,98414.45
2019-05-05T16:27:38.545Z,98415.50
2019-05-05T16:30:10.807Z,98422.55
2019-05-05T16:32:42.138Z,98420.11
2019-05-05T16:35:15.533Z,98426.75
2019-05-05T16:37:47.002Z,98426.75
2019-05-05T16:40:19.169Z,98423.17
2019-05-05T16:42:54.172Z,98417.56
2019-05-05T16:45:25.334Z,98424.80
2019-05-05T16:47:56.725Z,98422.30
2019-05-05T16:50:29.792Z,98425.20
2019-05-05T16:53:04.043Z,98426.45
2019-05-05T16:55:39.949Z,98430.63
2019-05-05T16:58:13.898Z,98426.81
2019-05-05T17:00:45.450Z,98432.01
2019-05-05T17:03:16.849Z,98437.16
2019-05-05T17:05:48.395Z,98436.39
2019-05-05T17:08:19.716Z,98436.09
2019-05-05T17:10:51.157Z,98435.77
2019-05-05T17:13:33.442Z,98440.54
2019-05-05T17:16:28.105Z,98434.66
2019-05-05T17:19:04.612Z,98438.94
2019-05-05T17:21:57.764Z,98438.02
2019-05-05T17:24:29.139Z,98430.98
2019-05-05T17:27:00.666Z,98439.05
2019-05-05T17:29:34.459Z,98437.15
2019-05-05T17:32:05.976Z,98436.58
2019-05-05T17:34:37.462Z,98436.22
2019-05-05T17:37:08.980Z,98440.77
2019-05-05T17:39:47.648Z,98432.87
2019-05-05T17:42:44.034Z,98435.25
2019-05-05T17:45:25.093Z,98445.30
2019-05-05T17:48:05.657Z,98443.97
2019-05-05T17:51:04.408Z,98448.67
2019-05-05T17:53:47.333Z,98442.23
2019-05-05T17:56:18.595Z,98450.19
2019-05-05T17:58:50.221Z,98450.91
2019-05-05T18:01:21.662Z,98454.89
2019-05-05T18:03:54.511Z,98455.19
2019-05-05T18:06:50.559Z,98460.44
2019-05-05T18:09:31.564Z,98459.00
2019-05-05T18:12:15.599Z,98469.48
2019-05-05T18:14:54.358Z,98469.58
2019-05-05T18:17:25.924Z,98474.31
2019-05-05T18:19:57.230Z,98479.89
2019-05-05T18:22:28.516Z,98481.39
2019-05-05T18:25:00.009Z,98475.52
2019-05-05T18:27:31.316Z,98477.86
2019-05-05T18:30:03.989Z,98475.66
2019-05-05T18:32:35.326Z,98481.12
2019-05-05T18:35:08.577Z,98475.75
2019-05-05T18:37:39.935Z,98482.83
2019-05-05T18:40:14.569Z,98492.05
2019-05-05T18:42:47.652Z,98494.12
2019-05-05T18:45:19.146Z,98497.28
2019-05-05T18:47:50.564Z,98507.37
2019-05-05T18:50:21.846Z,98509.00
2019-05-05T18:52:53.854Z,98514.58
2019-05-05T18:55:25.301Z,98511.34
2019-05-05T18:57:56.662Z,98516.14
2019-05-05T19:00:45.643Z,98521.65
2019-05-05T19:03:21.131Z,98529.61
2019-05-05T19:05:57.508Z,98530.86
2019-05-05T19:08:32.195Z,98525.05
2019-05-05T19:11:03.811Z,98525.29
2019-05-05T19:13:35.307Z,98531.10
2019-05-05T19:16:06.746Z,98532.73
2019-05-05T19:18:38.086Z,98527.77
2019-05-05T19:21:28.442Z,98530.20
2019-05-05T19:24:00.003Z,98538.73
2019-05-05T19:26:33.639Z,98546.45
2019-05-05T19:29:05.162Z,98541.62
2019-05-05T19:31:38.179Z,98539.48
2019-05-05T19:34:09.580Z,98538.73
2019-05-05T19:36:41.073Z,98537.72
2019-05-05T19:39:13.741Z,98546.18
2019-05-05T19:41:47.187Z,98545.95
2019-05-05T19:44:18.675Z,98548.90
2019-05-05T19:47:17.846Z,98550.73
2019-05-05T19:49:57.698Z,98547.06
2019-05-05T19:52:29.185Z,98547.27
2019-05-05T19:55:00.663Z,98550.97
2019-05-05T19:57:35.793Z,98546.12
2019-05-05T20:00:05.566Z,98550.54
2019-05-05T20:02:37.146Z,98549.96
2019-05-05T20:05:08.655Z,98543.78
2019-05-05T20:07:43.739Z,98547.08
2019-05-05T20:10:14.866Z,98550.17
2019-05-05T20:12:46.982Z,98544.09
2019-05-05T20:15:28.819Z,98543.20
2019-05-05T20:18:01.948Z,98543.89
2019-05-05T20:20:35.026Z,98544.34
2019-05-05T20:23:06.346Z,98542.67
2019-05-05T20:25:37.688Z,98548.17
2019-05-05T20:28:09.091Z,98547.59
2019-05-05T20:30:40.451Z,98544.37
2019-05-05T20:33:19.262Z,98546.71
2019-05-05T20:36:03.798Z,98544.58
2019-05-05T20:38:41.540Z,98542.44
2019-05-05T20:41:17.035Z,98547.73
2019-05-05T20:43:48.295Z,98545.55
2019-05-05T20:46:23.538Z,98553.94
2019-05-05T20:48:54.644Z,98546.58
2019-05-05T20:51:26.042Z,98552.08
2019-05-05T20:53:57.475Z,98554.22
2019-05-05T20:56:28.767Z,98545.99
2019-05-05T20:59:00.090Z,98550.41
2019-05-05T21:01:34.119Z,98542.97
2019-05-05T21:04:05.518Z,98546.88
2019-05-05T21:06:36.891Z,98541.00
2019-05-05T21:09:08.671Z,98536.72
2019-05-05T21:11:40.124Z,98538.55
2019-05-05T21:14:11.509Z,98534.81
2019-05-05T21:16:44.081Z,98539.80
2019-05-05T21:19:15.390Z,98542.14
2019-05-05T21:21:49.471Z,98531.72
2019-05-05T21:24:20.854Z,98535.62
2019-05-05T21:26:55.539Z,98535.83
2019-05-05T21:29:39.568Z,98536.88
2019-05-05T21:32:04.527Z,98535.38
2019-05-05T21:34:35.973Z,98549.66
2019-05-05T21:37:09.028Z,98545.45
2019-05-05T21:39:40.360Z,98542.61
2019-05-05T21:42:13.902Z,98542.30
2019-05-05T21:44:44.963Z,98543.63
2019-05-05T21:47:17.981Z,98543.42
2019-05-05T21:49:49.392Z,98547.91
2019-05-05T21:52:34.581Z,98548.05
2019-05-05T21:55:19.079Z,98550.39
2019-05-05T21:58:23.270Z,98546.14
2019-05-05T22:01:11.280Z,98550.39
2019-05-05T22:03:44.449Z,98548.62
2019-05-05T22:06:15.836Z,98547.30
2019-05-05T22:08:48.475Z,98548.12
2019-05-05T22:11:20.662Z,98554.23
2019-05-05T22:13:54.074Z,98551.73
2019-05-05T22:16:25.873Z,98552.22
2019-05-05T22:18:57.371Z,98553.47
2019-05-05T22:21:43.697Z,98554.95
2019-05-05T22:24:16.401Z,98550.53
2019-05-05T22:26:47.961Z,98554.64
2019-05-05T22:29:19.294Z,98544.06
2019-05-05T22:31:50.634Z,98548.46
2019-05-05T22:34:23.913Z,98548.30
2019-05-05T22:36:54.974Z,98547.59
2019-05-05T22:39:26.256Z,98551.49
2019-05-05T22:41:57.833Z,98546.41
2019-05-05T22:44:29.198Z,98549.50
2019-05-05T22:47:00.745Z,98545.84
2019-05-05T22:49:32.170Z,98542.14
2019-05-05T22:52:04.185Z,98545.02
2019-05-05T22:54:35.637Z,98544.20
2019-05-05T22:57:08.682Z,98544.20
2019-05-05T22:59:40.377Z,98546.85
2019-05-05T23:02:11.932Z,98546.55
2019-05-05T23:04:50.763Z,98540.74
2019-05-05T23:07:28.389Z,98538.02
2019-05-05T23:09:59.870Z,98542.42
2019-05-05T23:12:32.195Z,98541.84
2019-05-05T23:15:04.022Z,98538.58
2019-05-05T23:17:51.779Z,98542.35
2019-05-05T23:21:02.796Z,98534.92
2019-05-05T23:24:11.369Z,98538.58
2019-05-05T23:26:43.796Z,98539.91
2019-05-05T23:29:15.316Z,98534.34
2019-05-05T23:31:46.774Z,98536.47
2019-05-05T23:34:18.233Z,98530.87
2019-05-05T23:36:49.760Z,98532.78
2019-05-05T23:39:21.052Z,98531.77
2019-05-05T23:41:54.506Z,98529.93
2019-05-05T23:44:25.868Z,98530.20
2019-05-05T23:46:57.807Z,98537.13
2019-05-05T23:49:29.148Z,98535.50
2019-05-05T23:52:00.579Z,98536.55
2019-05-05T23:54:34.210Z,98539.91
2019-05-05T23:57:05.791Z,98540.14
2019-05-05T23:59:37.227Z,98536.41
